Time;durP1;ratioP1;P1;durP2;ratioP2;P2;SDS_P1;SDS_P2;PMS_P1;PMS_P2;Temp;Humidity;BMP_temperature;BMP_pressure;BME280_temperature;BME280_humidity;BME280_pressure;Samples;Min_cycle;Max_cycle;Signal;HPM_P1;HPM_P2
2022/10/31 00:01:15;;;;;;;2.77;0.70;;;;;;;10.12;80.09;99961.50;1623762;85;21041;-60
2022/10/31 00:03:41;;;;;;;3.30;0.50;;;;;;;10.09;80.30;99952.05;1660468;83;21060;-72
2022/10/31 00:06:09;;;;;;;1.80;0.40;;;;;;;10.07;80.48;99958.08;1697151;82;22087;-61
2022/10/31 00:08:36;;;;;;;1.87;0.40;;;;;;;10.05;80.68;99964.11;1690797;83;21005;-61
2022/10/31 00:11:09;;;;;;;1.10;0.20;;;;;;;10.03;80.81;99954.16;1704105;83;21022;-62
2022/10/31 00:13:35;;;;;;;1.73;0.87;;;;;;;10.02;80.87;99955.68;1695283;82;20987;-60
2022/10/31 00:16:04;;;;;;;1.80;0.60;;;;;;;10.01;80.97;99965.52;1697071;82;21029;-61
2022/10/31 00:18:31;;;;;;;3.60;0.63;;;;;;;10.00;81.09;99957.23;1698434;82;21542;-72
2022/10/31 00:21:02;;;;;;;7.00;0.93;;;;;;;9.67;81.32;99911.72;1703740;82;20946;-61
2022/10/31 00:23:30;;;;;;;2.57;0.30;;;;;;;9.93;81.55;99959.02;1708736;82;21049;-58
2022/10/31 00:26:02;;;;;;;1.55;0.40;;;;;;;9.87;81.77;99963.27;1683582;81;21041;-59
2022/10/31 00:28:31;;;;;;;9.03;0.77;;;;;;;9.89;81.82;99955.10;1728768;81;20959;-63
2022/10/31 00:31:05;;;;;;;3.30;0.40;;;;;;;9.88;81.96;99962.23;1713538;81;21030;-60
2022/10/31 00:33:37;;;;;;;1.90;0.30;;;;;;;9.84;82.26;99956.99;1634989;84;22218;-60
2022/10/31 00:36:06;;;;;;;3.20;0.60;;;;;;;9.80;82.59;99970.37;1674741;83;21633;-60
2022/10/31 00:38:34;;;;;;;2.27;0.50;;;;;;;9.78;82.75;99965.75;1680557;83;21014;-59
2022/10/31 00:41:03;;;;;;;1.00;0.30;;;;;;;9.78;82.83;99971.59;1672643;83;21542;-59
2022/10/31 00:43:30;;;;;;;2.57;0.77;;;;;;;9.74;83.03;99957.84;1680410;84;21032;-62
2022/10/31 00:45:57;;;;;;;1.62;0.40;;;;;;;9.73;83.11;99949.02;1696333;83;21033;-59
2022/10/31 00:48:26;;;;;;;3.53;0.30;;;;;;;9.70;83.78;99967.20;1702167;82;20997;-59
2022/10/31 00:50:53;;;;;;;3.03;1.17;;;;;;;9.68;83.60;99960.77;1695578;83;21031;-60
2022/10/31 00:53:19;;;;;;;3.87;0.60;;;;;;;9.67;83.72;99956.96;1706224;83;21087;-58
2022/10/31 00:55:45;;;;;;;4.53;0.70;;;;;;;9.67;83.71;99943.14;1697775;83;21013;-61
2022/10/31 00:58:12;;;;;;;2.75;0.35;;;;;;;9.65;83.77;99943.84;1684513;82;21041;-58
2022/10/31 01:00:38;;;;;;;1.95;0.53;;;;;;;9.64;83.88;99946.69;1656551;83;20984;-59
2022/10/31 01:03:05;;;;;;;1.97;0.50;;;;;;;9.63;84.08;99939.22;1679672;83;21098;-60
2022/10/31 01:05:31;;;;;;;2.27;0.30;;;;;;;9.62;84.07;99938.89;1675667;84;21044;-65
2022/10/31 01:07:58;;;;;;;1.72;0.80;;;;;;;9.60;84.38;99944.09;1674814;84;21541;-63
2022/10/31 01:10:26;;;;;;;4.50;0.57;;;;;;;9.55;84.43;99945.50;1676554;83;21008;-60
2022/10/31 01:12:52;;;;;;;3.70;0.60;;;;;;;9.57;84.48;99951.12;1687487;83;21019;-61
2022/10/31 01:15:22;;;;;;;3.07;0.40;;;;;;;9.57;84.54;99943.14;1668843;83;21013;-60
2022/10/31 01:17:49;;;;;;;1.17;0.50;;;;;;;9.58;84.79;99944.28;1705087;81;20968;-59
2022/10/31 01:20:16;;;;;;;;;;;;;;;9.51;84.69;99941.58;1713921;82;21050;-59
2022/10/31 01:22:45;;;;;;;2.83;0.70;;;;;;;9.55;84.78;99946.83;1709853;82;20159;-64
2022/10/31 01:25:13;;;;;;;3.90;0.70;;;;;;;9.53;84.80;99950.19;1688038;82;21553;-58
2022/10/31 01:27:39;;;;;;;6.60;0.62;;;;;;;9.51;84.94;99951.38;1672460;84;21046;-62
2022/10/31 01:30:08;;;;;;;6.43;0.83;;;;;;;9.50;85.07;99949.75;1679921;83;21479;-59
2022/10/31 01:32:35;;;;;;;5.67;1.10;;;;;;;9.47;85.31;99946.13;1677593;83;21243;-62
2022/10/31 01:35:01;;;;;;;1.35;0.45;;;;;;;9.46;85.33;99937.33;1687622;83;21108;-61
2022/10/31 01:37:28;;;;;;;2.33;0.60;;;;;;;9.45;85.47;99944.98;1671495;83;21014;-65
2022/10/31 01:39:54;;;;;;;1.60;0.70;;;;;;;9.47;85.49;99947.45;1671229;83;21078;-64
2022/10/31 01:42:23;;;;;;;2.17;0.20;;;;;;;9.46;85.39;99943.98;1680722;81;21299;-60
2022/10/31 01:45:01;;;;;;;1.83;0.20;;;;;;;9.52;85.28;99955.19;1682130;83;21045;-63
2022/10/31 01:47:41;;;;;;;4.00;1.00;;;;;;;9.51;85.33;99949.56;1672263;83;21495;-63
2022/10/31 01:50:13;;;;;;;2.50;0.40;;;;;;;9.46;85.38;99951.97;1684173;83;21017;-62
2022/10/31 01:52:46;;;;;;;2.83;0.73;;;;;;;9.45;85.53;99950.81;1692190;83;20970;-65
2022/10/31 01:55:30;;;;;;;2.20;0.50;;;;;;;9.44;85.55;99954.51;1673449;83;21158;-67
2022/10/31 01:58:10;;;;;;;5.53;1.27;;;;;;;9.46;85.69;99949.30;1649296;85;21041;-60
2022/10/31 02:00:38;;;;;;;2.47;0.30;;;;;;;9.47;85.47;99956.77;1677171;83;21586;-59
2022/10/31 02:03:05;;;;;;;4.80;0.60;;;;;;;9.48;85.45;99947.79;1649438;85;21026;-61
2022/10/31 02:05:33;;;;;;;2.25;0.42;;;;;;;9.49;85.38;99956.07;1684092;83;21597;-60
2022/10/31 02:08:28;;;;;;;0.93;0.30;;;;;;;9.51;85.43;99947.39;1673017;84;21455;-60
2022/10/31 02:10:57;;;;;;;1.80;0.67;;;;;;;9.52;85.37;99951.71;1658011;84;20998;-62
2022/10/31 02:13:25;;;;;;;3.83;0.93;;;;;;;9.53;85.32;99958.17;1689624;82;21093;-58
2022/10/31 02:15:55;;;;;;;1.53;0.30;;;;;;;9.55;85.43;99968.12;1704577;82;21133;-60
2022/10/31 02:18:25;;;;;;;3.33;0.67;;;;;;;9.56;85.31;99964.94;1705169;82;21053;-69
2022/10/31 02:21:16;;;;;;;2.80;1.03;;;;;;;9.57;85.29;99973.73;1687859;82;21514;-61
2022/10/31 02:24:18;;;;;;;5.90;1.30;;;;;;;9.59;85.31;99964.57;1664479;83;21049;-59
2022/10/31 02:26:56;;;;;;;2.93;0.50;;;;;;;9.61;85.37;99981.17;1670562;83;21126;-63
2022/10/31 02:29:46;;;;;;;3.53;0.40;;;;;;;9.58;85.48;99980.72;1672317;83;21037;-59
2022/10/31 02:32:29;;;;;;;1.93;0.40;;;;;;;9.58;85.30;99986.05;1676664;83;21081;-59
2022/10/31 02:35:24;;;;;;;4.67;0.40;;;;;;;9.55;85.46;100000.05;1644956;84;21061;-60
2022/10/31 02:38:02;;;;;;;1.57;0.33;;;;;;;9.52;85.45;99991.62;1676234;83;21053;-61
2022/10/31 02:40:37;;;;;;;3.90;0.47;;;;;;;9.51;85.37;99999.27;1645377;85;21065;-60
2022/10/31 02:43:37;;;;;;;1.27;0.30;;;;;;;9.47;85.38;100009.46;1671819;83;21530;-61
2022/10/31 02:46:15;;;;;;;5.13;0.40;;;;;;;9.45;85.42;100006.17;1673875;83;21483;-58
2022/10/31 02:48:44;;;;;;;3.07;1.23;;;;;;;9.41;85.37;100010.23;1678780;83;21070;-59
2022/10/31 02:51:12;;;;;;;5.10;0.40;;;;;;;9.40;85.39;100011.25;1684545;83;21255;-59
2022/10/31 02:53:39;;;;;;;0.63;0.40;;;;;;;9.43;85.27;100020.69;1623882;85;21056;-60
2022/10/31 02:56:14;;;;;;;1.27;0.37;;;;;;;9.45;85.13;100026.64;1689362;82;21785;-60
2022/10/31 02:58:46;;;;;;;3.47;0.30;;;;;;;9.45;84.93;100024.80;1693255;82;21049;-60
2022/10/31 03:01:27;;;;;;;2.90;0.47;;;;;;;9.46;84.92;100038.94;1695680;82;21077;-59
2022/10/31 03:04:01;;;;;;;1.63;0.50;;;;;;;9.45;84.61;100030.11;1681840;83;21006;-60
2022/10/31 03:06:54;;;;;;;1.50;0.67;;;;;;;9.45;84.80;100032.77;1701396;82;21025;-60
2022/10/31 03:09:59;;;;;;;0.73;0.20;;;;;;;9.47;84.45;100037.91;1699911;82;21022;-59
2022/10/31 03:12:33;;;;;;;2.03;0.47;;;;;;;9.50;84.44;100041.53;1706746;81;21004;-59
2022/10/31 03:15:05;;;;;;;1.20;0.47;;;;;;;9.52;84.20;100045.64;1717131;81;21054;-59
2022/10/31 03:17:37;;;;;;;5.60;0.93;;;;;;;9.55;83.85;100053.27;1708052;81;21058;-60
2022/10/31 03:20:08;;;;;;;4.50;0.40;;;;;;;9.59;83.57;100055.05;1686940;83;21129;-61
2022/10/31 03:22:40;;;;;;;4.67;1.57;;;;;;;9.62;83.32;100061.81;1702948;82;21585;-59
2022/10/31 03:25:09;;;;;;;0.83;0.13;;;;;;;9.67;82.95;100064.23;1701303;81;21142;-58
2022/10/31 03:27:39;;;;;;;5.10;0.33;;;;;;;9.71;81.85;100064.67;1695830;83;20999;-59
2022/10/31 03:30:08;;;;;;;1.27;0.60;;;;;;;9.71;81.10;100072.14;1667147;84;21004;-60
2022/10/31 03:32:42;;;;;;;0.63;0.10;;;;;;;9.61;78.34;100078.81;1721697;81;21560;-60
2022/10/31 03:35:12;;;;;;;2.93;0.10;;;;;;;9.47;70.33;100081.30;1699552;82;21075;-60
2022/10/31 03:37:42;;;;;;;2.23;0.00;;;;;;;9.44;67.50;100076.37;1710119;82;20998;-65
2022/10/31 03:40:14;;;;;;;0.93;0.00;;;;;;;9.35;61.22;100098.77;1719038;82;21272;-60
2022/10/31 03:42:46;;;;;;;4.37;0.10;;;;;;;9.31;60.19;100096.16;1720617;82;20996;-60
2022/10/31 03:45:20;;;;;;;0.13;0.00;;;;;;;9.20;58.30;100100.11;1732524;82;21081;-60
2022/10/31 07:51:06;;;;;;;0.60;0.00;;;;;;;8.92;47.08;100460.95;1790634;78;22777;-60
2022/10/31 07:53:36;;;;;;;0.40;0.00;;;;;;;8.98;47.03;100461.27;1733320;79;21119;-71
2022/10/31 07:56:15;;;;;;;1.60;0.00;;;;;;;8.87;46.58;100469.12;1710074;81;21519;-60
2022/10/31 07:58:42;;;;;;;0.80;0.00;;;;;;;8.77;46.64;100459.53;1715791;81;21069;-62
2022/10/31 08:01:08;;;;;;;0.53;0.00;;;;;;;8.70;46.44;100463.06;1722766;81;20996;-69
2022/10/31 08:03:36;;;;;;;0.40;0.10;;;;;;;8.68;46.86;100474.36;1724251;81;21021;-60
2022/10/31 08:06:21;;;;;;;0.67;0.00;;;;;;;8.66;46.42;100461.25;1756484;80;21052;-64
2022/10/31 08:08:59;;;;;;;0.60;0.00;;;;;;;8.68;46.88;100460.59;1725614;79;21477;-60
2022/10/31 08:11:26;;;;;;;0.13;0.10;;;;;;;8.74;47.19;100467.87;1758980;80;21607;-60
2022/10/31 08:13:53;;;;;;;0.20;0.10;;;;;;;8.85;47.48;100465.81;1732850;81;20998;-60
2022/10/31 08:16:20;;;;;;;0.10;0.00;;;;;;;8.97;47.57;100472.41;1728000;81;21529;-60
2022/10/31 08:18:53;;;;;;;1.73;0.10;;;;;;;9.06;47.15;100474.03;1756640;80;21122;-62
2022/10/31 08:21:19;;;;;;;0.50;0.00;;;;;;;9.05;47.12;100450.27;1702790;82;21057;-64
2022/10/31 08:23:48;;;;;;;0.10;0.00;;;;;;;9.02;47.35;100455.41;1701244;83;21053;-64
2022/10/31 08:26:14;;;;;;;0.97;0.00;;;;;;;9.01;47.08;100460.93;1666213;82;21057;-61
2022/10/31 08:28:41;;;;;;;1.75;0.00;;;;;;;8.96;46.21;100456.94;1683834;83;21081;-59
2022/10/31 08:31:09;;;;;;;0.63;0.00;;;;;;;8.93;46.24;100459.97;1662940;84;21041;-60
2022/10/31 08:33:39;;;;;;;0.73;0.00;;;;;;;8.89;45.55;100463.13;1657166;84;21010;-62
2022/10/31 08:36:07;;;;;;;0.37;0.00;;;;;;;8.95;45.91;100461.13;1632638;84;21634;-62
2022/10/31 08:38:48;;;;;;;1.10;0.20;;;;;;;8.96;45.10;100440.17;1661717;84;21098;-61
2022/10/31 08:41:17;;;;;;;1.40;0.10;;;;;;;9.04;44.74;100449.45;1678701;82;20990;-62
2022/10/31 08:43:43;;;;;;;1.98;0.10;;;;;;;9.08;44.46;100455.22;1672269;83;21624;-61
2022/10/31 08:46:11;;;;;;;0.50;0.10;;;;;;;9.09;44.45;100461.69;1656485;84;20990;-71
2022/10/31 08:48:37;;;;;;;;;;;;;;;9.14;44.43;100451.88;1684323;83;21050;-61
2022/10/31 08:51:04;;;;;;;1.43;0.27;;;;;;;9.20;43.17;100453.81;1679861;83;20175;-63
2022/10/31 08:53:31;;;;;;;0.30;0.00;;;;;;;9.22;43.16;100457.13;1683658;83;21049;-62
2022/10/31 08:56:16;;;;;;;0.17;0.10;;;;;;;9.31;43.20;100437.96;1642183;86;21117;-65
2022/10/31 08:58:42;;;;;;;;;;;;;;;9.45;43.04;100450.98;1640689;86;21458;-61
2022/10/31 09:01:09;;;;;;;2.63;0.10;;;;;;;9.54;42.75;100448.59;1666465;84;20240;-61
2022/10/31 09:03:35;;;;;;;0.20;0.00;;;;;;;9.54;42.13;100452.58;1664376;85;21021;-60
2022/10/31 09:06:05;;;;;;;1.98;0.00;;;;;;;9.59;41.69;100440.91;1662783;85;21490;-64
2022/10/31 09:08:33;;;;;;;1.17;0.07;;;;;;;9.60;42.26;100449.70;1690856;83;21056;-62
2022/10/31 09:11:00;;;;;;;0.13;0.00;;;;;;;9.61;41.97;100454.03;1682221;83;21137;-62
2022/10/31 09:13:43;;;;;;;0.83;0.00;;;;;;;9.65;42.12;100449.48;1670681;85;21041;-61
2022/10/31 09:16:29;;;;;;;0.83;0.10;;;;;;;9.68;41.22;100458.94;1674669;83;21020;-68
2022/10/31 09:18:55;;;;;;;0.20;0.10;;;;;;;9.68;40.32;100459.79;1650114;85;21091;-68
2022/10/31 09:21:24;;;;;;;1.10;0.30;;;;;;;9.68;40.79;100452.28;1659955;85;21009;-70
2022/10/31 09:23:53;;;;;;;0.87;0.30;;;;;;;9.70;40.64;100446.27;1685710;83;21018;-70
2022/10/31 09:26:20;;;;;;;1.47;0.07;;;;;;;9.70;40.62;100456.44;1683456;83;20985;-69
2022/10/31 09:28:58;;;;;;;0.93;0.30;;;;;;;9.74;40.69;100456.91;1647880;84;21053;-67
2022/10/31 09:31:25;;;;;;;0.20;0.00;;;;;;;9.74;39.78;100439.61;1665313;84;21032;-67
2022/10/31 09:33:54;;;;;;;0.27;0.00;;;;;;;9.75;40.31;100458.04;1660111;84;21053;-69
2022/10/31 09:36:30;;;;;;;0.72;0.10;;;;;;;9.82;39.86;100456.01;1700276;83;21029;-67
2022/10/31 09:38:57;;;;;;;;;;;;;;;9.87;38.98;100453.13;1714111;82;21056;-69
2022/10/31 09:41:52;;;;;;;1.45;0.28;;;;;;;9.89;38.61;100449.78;1709900;82;20178;-69
2022/10/31 09:44:36;;;;;;;0.13;0.00;;;;;;;9.85;39.29;100443.65;1695821;83;21056;-69
2022/10/31 09:47:21;;;;;;;0.80;0.10;;;;;;;9.90;37.93;100446.60;1699892;83;21038;-68
2022/10/31 09:49:58;;;;;;;0.40;0.07;;;;;;;9.94;38.25;100447.89;1699058;84;21046;-70
2022/10/31 09:52:32;;;;;;;0.77;0.03;;;;;;;10.02;39.30;100446.98;1697534;83;21077;-68
2022/10/31 09:55:06;;;;;;;3.70;0.10;;;;;;;10.12;39.20;100447.56;1701304;83;21051;-68
2022/10/31 09:57:36;;;;;;;1.30;0.70;;;;;;;10.25;38.33;100437.09;1695225;83;20978;-70
2022/10/31 10:00:09;;;;;;;0.70;0.40;;;;;;;10.38;37.63;100451.62;1699464;84;21010;-70
2022/10/31 10:03:08;;;;;;;0.23;0.10;;;;;;;10.49;37.59;100451.16;1685829;83;21014;-68
2022/10/31 10:05:54;;;;;;;2.30;0.10;;;;;;;10.45;36.74;100446.73;1660306;83;20994;-66
2022/10/31 10:08:27;;;;;;;2.60;0.03;;;;;;;10.34;36.34;100451.19;1697745;83;21682;-68
2022/10/31 10:11:32;;;;;;;1.10;0.10;;;;;;;10.35;36.97;100456.82;1704059;83;21113;-69
2022/10/31 10:14:24;;;;;;;0.85;0.00;;;;;;;10.34;37.18;100457.85;1692690;83;21052;-69
2022/10/31 10:17:05;;;;;;;0.67;0.00;;;;;;;10.37;36.74;100449.98;1712283;82;21023;-71
2022/10/31 10:20:09;;;;;;;0.10;0.00;;;;;;;10.32;36.53;100451.84;1664191;84;21134;-70
2022/10/31 10:23:09;;;;;;;0.57;0.00;;;;;;;10.28;36.25;100452.72;1702298;83;21066;-70
2022/10/31 10:25:41;;;;;;;0.20;0.10;;;;;;;10.25;36.29;100437.60;1693020;83;21601;-70
2022/10/31 10:28:38;;;;;;;0.20;0.20;;;;;;;10.18;35.94;100438.83;1665386;85;21126;-68
2022/10/31 10:31:11;;;;;;;0.00;0.00;;;;;;;10.19;36.17;100435.17;1642075;85;21075;-68
2022/10/31 10:34:02;;;;;;;0.10;0.07;;;;;;;10.13;35.03;100443.38;1702481;82;21120;-69
2022/10/31 10:36:35;;;;;;;0.20;0.00;;;;;;;10.16;35.56;100440.84;1666950;84;21112;-70
2022/10/31 10:39:13;;;;;;;0.53;0.00;;;;;;;10.11;34.51;100441.89;1701783;82;21057;-69
2022/10/31 10:41:45;;;;;;;0.10;0.00;;;;;;;10.10;34.44;100446.92;1706901;81;21037;-69
2022/10/31 10:44:11;;;;;;;0.10;0.00;;;;;;;10.07;34.47;100456.08;1705082;82;21057;-70
2022/10/31 10:49:50;;;;;;;1.00;0.00;;;;;;;10.06;35.19;100462.43;1710444;82;21069;-69
2022/10/31 10:52:35;;;;;;;0.10;0.00;;;;;;;10.04;35.50;100457.80;1709445;82;20985;-70
2022/10/31 10:55:16;;;;;;;0.20;0.00;;;;;;;10.08;35.71;100460.92;1707794;82;21064;-69
2022/10/31 10:57:57;;;;;;;0.40;0.00;;;;;;;10.13;36.09;100463.36;1708292;82;21554;-69
2022/10/31 11:00:46;;;;;;;2.17;0.97;;;;;;;10.17;35.95;100464.31;1700459;82;21585;-68
2022/10/31 11:03:15;;;;;;;0.10;0.00;;;;;;;10.20;34.85;100447.46;1708643;82;21489;-68
2022/10/31 11:05:58;;;;;;;2.20;0.20;;;;;;;10.12;33.87;100458.21;1709848;81;20988;-67
2022/10/31 11:08:35;;;;;;;0.00;0.00;;;;;;;10.13;34.32;100454.52;1713411;82;21077;-72
2022/10/31 11:11:13;;;;;;;3.50;1.93;;;;;;;10.12;34.28;100459.55;1715917;82;21082;-69
2022/10/31 11:13:43;;;;;;;3.37;0.50;;;;;;;10.15;34.75;100455.16;1711975;82;21026;-69
2022/10/31 11:16:30;;;;;;;0.80;0.10;;;;;;;10.18;35.20;100453.99;1710963;82;21528;-69
2022/10/31 11:19:23;;;;;;;2.07;0.50;;;;;;;10.25;35.19;100448.26;1716581;82;21125;-69
2022/10/31 11:21:50;;;;;;;1.03;0.10;;;;;;;9.85;35.43;100381.09;1710933;82;21158;-68
2022/10/31 11:24:23;;;;;;;0.10;0.00;;;;;;;10.36;35.99;100452.31;1712859;82;21092;-70
2022/10/31 11:26:51;;;;;;;1.17;0.10;;;;;;;10.40;35.47;100433.64;1707609;82;20997;-67
2022/10/31 11:29:28;;;;;;;0.60;0.00;;;;;;;10.43;35.54;100458.05;1712616;82;21036;-71
2022/10/31 11:31:56;;;;;;;1.23;0.30;;;;;;;10.44;35.11;100460.23;1717598;82;21013;-69
2022/10/31 11:34:37;;;;;;;0.40;0.00;;;;;;;10.46;35.52;100460.36;1709239;82;21009;-70
2022/10/31 11:37:16;;;;;;;0.10;0.00;;;;;;;10.48;35.25;100458.84;1712459;82;20989;-67
2022/10/31 11:39:53;;;;;;;1.30;0.10;;;;;;;10.49;35.14;100460.48;1703239;82;21014;-68
2022/10/31 11:42:17;;;;;;;0.53;0.00;;;;;;;10.49;34.68;100469.81;1701045;82;21022;-68
2022/10/31 11:44:45;;;;;;;0.37;0.08;;;;;;;10.51;33.88;100451.83;1707969;82;21033;-71
2022/10/31 11:47:17;;;;;;;2.23;0.00;;;;;;;10.47;33.22;100456.70;1712508;83;21376;-66
2022/10/31 11:49:49;;;;;;;0.43;0.00;;;;;;;10.40;33.58;100465.61;1712534;82;21013;-67
2022/10/31 11:52:23;;;;;;;0.97;0.00;;;;;;;10.35;33.22;100458.16;1707777;82;21012;-69
2022/10/31 11:55:04;;;;;;;0.00;0.00;;;;;;;10.34;33.71;100459.18;1711541;82;21193;-68
2022/10/31 11:57:44;;;;;;;0.63;0.00;;;;;;;10.37;33.92;100456.64;1700954;82;20950;-70
2022/10/31 12:00:30;;;;;;;1.80;0.00;;;;;;;10.38;33.96;100464.45;1708761;82;21053;-72
2022/10/31 12:03:34;;;;;;;0.47;0.00;;;;;;;10.40;34.21;100473.09;1706959;82;21002;-72
2022/10/31 12:06:06;;;;;;;0.73;0.00;;;;;;;10.42;33.86;100474.25;1702021;83;20989;-68
2022/10/31 12:08:36;;;;;;;1.07;0.10;;;;;;;10.40;33.42;100471.77;1709795;82;21020;-68
2022/10/31 12:11:37;;;;;;;0.03;0.00;;;;;;;10.40;33.60;100470.43;1710020;83;20957;-70
2022/10/31 12:14:43;;;;;;;0.10;0.00;;;;;;;10.40;33.31;100484.27;1705656;82;20954;-70
2022/10/31 12:17:22;;;;;;;2.80;0.00;;;;;;;10.37;33.66;100488.62;1710217;83;21000;-69
2022/10/31 12:20:30;;;;;;;2.20;0.00;;;;;;;10.32;33.95;100484.67;1709474;82;20997;-70
2022/10/31 12:23:29;;;;;;;0.10;0.00;;;;;;;10.35;34.02;100489.31;1695814;82;21120;-70
2022/10/31 12:26:10;;;;;;;0.30;0.10;;;;;;;10.31;33.71;100485.67;1714105;82;21018;-70
2022/10/31 12:29:10;;;;;;;0.00;0.00;;;;;;;10.29;33.42;100490.32;1685106;82;21509;-69
2022/10/31 12:31:54;;;;;;;0.97;0.00;;;;;;;10.29;33.69;100487.66;1703781;82;21542;-68
2022/10/31 12:34:44;;;;;;;0.47;0.00;;;;;;;10.29;33.95;100491.66;1707899;82;21131;-72
2022/10/31 12:37:39;;;;;;;0.67;0.10;;;;;;;10.31;33.81;100497.66;1705435;82;21799;-68
2022/10/31 12:40:26;;;;;;;2.67;0.10;;;;;;;10.32;33.85;100495.33;1711791;82;22458;-67
2022/10/31 12:43:04;;;;;;;0.60;0.00;;;;;;;10.33;33.91;100492.97;1722437;82;21040;-68
2022/10/31 12:45:42;;;;;;;1.07;0.00;;;;;;;10.32;33.23;100483.82;1706775;82;21526;-69
2022/10/31 12:48:38;;;;;;;0.30;0.00;;;;;;;10.29;33.50;100484.99;1712420;81;21099;-68
2022/10/31 12:51:45;;;;;;;1.10;0.10;;;;;;;10.29;33.20;100485.51;1709996;83;21041;-69
2022/10/31 12:54:58;;;;;;;1.23;0.07;;;;;;;10.31;33.48;100490.17;1708225;82;21096;-71
2022/10/31 12:57:47;;;;;;;0.30;0.03;;;;;;;10.30;33.63;100486.70;1710658;82;20981;-69
2022/10/31 13:00:17;;;;;;;1.37;0.17;;;;;;;10.32;33.64;100487.81;1711806;82;21063;-70
2022/10/31 13:02:58;;;;;;;0.40;0.10;;;;;;;10.28;33.24;100490.50;1712935;82;21053;-71
2022/10/31 13:05:36;;;;;;;1.97;0.10;;;;;;;10.30;33.53;100488.03;1709033;81;21076;-69
2022/10/31 13:08:11;;;;;;;0.80;0.10;;;;;;;10.32;33.77;100499.33;1708429;82;21013;-70
2022/10/31 13:11:09;;;;;;;1.63;0.10;;;;;;;10.34;33.85;100507.14;1712073;82;21071;-69
2022/10/31 13:13:59;;;;;;;1.45;0.53;;;;;;;10.37;33.71;100506.76;1702551;82;20962;-68
2022/10/31 13:16:36;;;;;;;1.67;0.10;;;;;;;10.36;34.00;100521.11;1715013;82;21595;-69
2022/10/31 13:19:21;;;;;;;2.63;0.00;;;;;;;10.36;33.74;100514.45;1713377;82;21125;-71
2022/10/31 13:22:07;;;;;;;0.70;0.00;;;;;;;10.33;33.24;100514.28;1703369;82;21072;-70
2022/10/31 13:24:57;;;;;;;0.10;0.00;;;;;;;10.31;32.93;100519.48;1712723;82;21442;-69
2022/10/31 13:27:50;;;;;;;1.23;0.10;;;;;;;10.28;32.38;100523.80;1705155;84;21005;-70
2022/10/31 13:30:22;;;;;;;0.97;0.43;;;;;;;10.27;32.97;100526.16;1697780;82;21029;-70
2022/10/31 13:33:01;;;;;;;3.97;0.70;;;;;;;10.22;33.06;100517.36;1711228;82;21073;-69
2022/10/31 13:35:42;;;;;;;2.13;0.23;;;;;;;10.23;33.23;100524.87;1705475;84;21117;-70
2022/10/31 13:38:23;;;;;;;0.60;0.10;;;;;;;10.23;33.31;100516.37;1711865;84;21028;-68
2022/10/31 13:41:15;;;;;;;0.20;0.10;;;;;;;10.27;33.35;100526.98;1693086;82;21632;-70
2022/10/31 13:44:11;;;;;;;0.67;0.10;;;;;;;10.27;33.40;100533.64;1694917;84;21032;-71
2022/10/31 13:46:41;;;;;;;2.00;0.10;;;;;;;10.28;33.57;100530.46;1710221;84;21029;-69
2022/10/31 13:49:34;;;;;;;0.33;0.03;;;;;;;10.23;33.29;100533.69;1709669;82;21100;-70
2022/10/31 13:52:18;;;;;;;0.53;0.00;;;;;;;10.20;33.30;100534.55;1715401;82;21132;-69
2022/10/31 13:54:55;;;;;;;1.70;0.00;;;;;;;10.15;33.28;100543.06;1710951;82;21042;-69
2022/10/31 13:57:34;;;;;;;0.10;0.10;;;;;;;10.14;33.19;100544.91;1709497;82;21037;-70
2022/10/31 14:00:23;;;;;;;4.77;0.10;;;;;;;10.10;32.83;100546.28;1712749;82;21483;-69
2022/10/31 14:02:56;;;;;;;0.73;0.10;;;;;;;10.09;33.04;100550.45;1712677;82;21017;-70
2022/10/31 14:05:29;;;;;;;0.67;0.10;;;;;;;10.05;33.28;100543.32;1712066;82;21077;-68
2022/10/31 14:07:58;;;;;;;0.20;0.10;;;;;;;10.04;33.18;100552.81;1712726;82;21028;-69
2022/10/31 14:10:29;;;;;;;0.40;0.10;;;;;;;10.04;33.33;100551.48;1696208;82;21013;-69
2022/10/31 14:13:17;;;;;;;1.77;0.30;;;;;;;10.05;33.43;100560.63;1726914;82;21036;-69
2022/10/31 14:16:00;;;;;;;0.30;0.10;;;;;;;10.03;33.67;100558.66;1705877;82;21164;-69
2022/10/31 14:18:39;;;;;;;1.17;0.17;;;;;;;10.02;33.74;100564.16;1698466;82;21557;-69
2022/10/31 14:21:25;;;;;;;0.70;0.10;;;;;;;10.02;34.01;100564.16;1711548;82;21584;-69
2022/10/31 14:23:53;;;;;;;0.83;0.20;;;;;;;10.01;34.02;100563.84;1696701;84;21062;-68
2022/10/31 14:26:33;;;;;;;0.40;0.10;;;;;;;9.97;33.97;100569.21;1711724;82;21064;-69
2022/10/31 14:29:17;;;;;;;0.20;0.10;;;;;;;9.94;34.04;100566.38;1703808;82;20953;-68
2022/10/31 14:31:58;;;;;;;0.40;0.20;;;;;;;9.94;34.17;100577.88;1709019;82;21574;-70
2022/10/31 14:34:43;;;;;;;2.00;0.70;;;;;;;9.95;34.34;100580.03;1715843;82;21173;-68
2022/10/31 14:37:36;;;;;;;0.87;0.20;;;;;;;9.93;34.55;100578.05;1699998;82;21017;-69
2022/10/31 14:40:44;;;;;;;2.23;0.30;;;;;;;9.93;34.71;100578.88;1709902;82;21078;-68
2022/10/31 14:43:55;;;;;;;1.17;0.60;;;;;;;9.90;34.87;100580.55;1711988;83;21530;-71
2022/10/31 14:46:56;;;;;;;1.27;0.30;;;;;;;9.84;35.05;100583.94;1710883;82;20990;-68
2022/10/31 14:49:39;;;;;;;1.57;0.30;;;;;;;9.77;35.30;100586.16;1710868;82;21067;-69
2022/10/31 14:52:08;;;;;;;1.47;0.30;;;;;;;9.72;35.53;100585.36;1708137;82;21049;-69
2022/10/31 14:54:40;;;;;;;7.93;0.80;;;;;;;9.69;35.55;100596.35;1709303;82;20997;-70
2022/10/31 14:57:21;;;;;;;4.33;0.80;;;;;;;9.67;35.69;100600.52;1697154;84;20965;-69
2022/10/31 14:59:52;;;;;;;1.00;0.30;;;;;;;9.65;35.76;100601.70;1706855;83;20990;-71
2022/10/31 15:02:36;;;;;;;3.53;0.43;;;;;;;9.61;36.00;100602.56;1708488;82;21024;-69
2022/10/31 15:05:09;;;;;;;1.17;0.43;;;;;;;9.56;36.31;100596.92;1708484;82;21021;-68
2022/10/31 15:07:39;;;;;;;2.33;0.83;;;;;;;9.53;36.36;100603.44;1706125;83;22178;-68
2022/10/31 15:10:09;;;;;;;5.93;0.47;;;;;;;9.51;36.28;100610.77;1709302;81;21450;-70
2022/10/31 15:12:38;;;;;;;3.73;0.50;;;;;;;9.49;36.61;100608.78;1702488;82;21624;-70
2022/10/31 15:15:16;;;;;;;0.93;0.57;;;;;;;9.46;36.43;100617.62;1707764;83;21041;-67
2022/10/31 15:17:56;;;;;;;0.97;0.20;;;;;;;9.41;36.47;100618.12;1708281;83;21044;-68
2022/10/31 15:20:27;;;;;;;1.57;0.20;;;;;;;9.40;36.64;100619.14;1707035;82;21152;-69
2022/10/31 15:22:59;;;;;;;0.73;0.40;;;;;;;9.40;36.64;100626.27;1709051;82;21028;-69
2022/10/31 15:25:33;;;;;;;1.47;0.40;;;;;;;9.39;36.79;100627.29;1710218;82;20970;-69
2022/10/31 15:27:59;;;;;;;0.30;0.30;;;;;;;9.36;36.84;100628.45;1675442;84;21039;-68
2022/10/31 15:30:28;;;;;;;1.02;0.30;;;;;;;9.35;36.84;100636.11;1711437;82;21033;-67
2022/10/31 15:32:55;;;;;;;0.97;0.30;;;;;;;9.30;36.91;100637.13;1712595;81;21044;-69
2022/10/31 15:35:28;;;;;;;0.50;0.20;;;;;;;9.29;36.80;100639.47;1711322;82;21455;-69
2022/10/31 15:37:59;;;;;;;1.23;0.40;;;;;;;9.26;36.76;100643.80;1710688;82;21181;-70
2022/10/31 15:40:27;;;;;;;3.20;0.20;;;;;;;9.22;36.78;100646.48;1709170;82;21558;-71
2022/10/31 15:43:02;;;;;;;0.60;0.43;;;;;;;8.73;37.42;100573.02;1710414;84;22157;-70
2022/10/31 15:45:30;;;;;;;1.13;0.27;;;;;;;9.15;37.25;100645.84;1711346;82;21164;-65
2022/10/31 15:48:12;;;;;;;1.50;0.43;;;;;;;9.07;37.37;100643.19;1694943;82;21072;-67
2022/10/31 15:50:46;;;;;;;1.13;0.50;;;;;;;9.06;37.45;100656.65;1698229;82;21064;-64
2022/10/31 15:53:26;;;;;;;0.70;0.20;;;;;;;8.98;37.58;100656.17;1716985;82;21561;-64
2022/10/31 15:56:02;;;;;;;1.30;0.43;;;;;;;8.96;38.72;100659.00;1709374;82;21499;-62
2022/10/31 15:58:29;;;;;;;0.70;0.30;;;;;;;8.93;38.99;100663.85;1709381;82;21101;-63
2022/10/31 16:01:04;;;;;;;3.47;0.60;;;;;;;8.92;38.84;100666.98;1704979;82;21057;-63
2022/10/31 16:03:33;;;;;;;1.63;0.87;;;;;;;8.90;38.41;100665.51;1708514;83;21075;-69
2022/10/31 16:06:03;;;;;;;1.23;0.40;;;;;;;8.86;38.29;100668.18;1710936;83;21574;-64
2022/10/31 16:08:35;;;;;;;0.93;0.50;;;;;;;8.84;38.17;100668.34;1708416;82;21510;-66
2022/10/31 16:11:15;;;;;;;1.40;0.70;;;;;;;8.82;38.20;100673.00;1711352;82;21506;-62
2022/10/31 16:14:18;;;;;;;3.57;0.83;;;;;;;8.81;38.09;100670.50;1704002;82;21600;-62
2022/10/31 16:16:52;;;;;;;0.60;0.20;;;;;;;8.80;37.87;100674.14;1708146;82;20981;-62
2022/10/31 16:19:34;;;;;;;1.57;0.50;;;;;;;8.74;38.12;100676.50;1710055;82;20997;-63
2022/10/31 16:22:11;;;;;;;0.90;0.27;;;;;;;8.70;38.15;100681.83;1709332;82;21090;-62
2022/10/31 16:24:46;;;;;;;1.10;0.28;;;;;;;8.69;38.24;100676.67;1711045;82;21056;-61